createdAt,value
2018-06-28T00:00:05.959Z,24.48
2018-06-28T00:01:06.291Z,24.53
2018-06-28T00:02:06.123Z,24.42
2018-06-28T00:03:06.060Z,24.42
2018-06-28T00:04:06.088Z,24.41
2018-06-28T00:05:06.123Z,24.36
2018-06-28T00:06:06.188Z,24.39
2018-06-28T00:07:06.444Z,24.41
2018-06-28T00:08:06.287Z,24.31
2018-06-28T00:09:06.253Z,24.34
2018-06-28T00:10:06.299Z,24.31
2018-06-28T00:11:06.322Z,24.27
2018-06-28T00:12:06.350Z,24.30
2018-06-28T00:13:06.636Z,24.18
2018-06-28T00:14:06.426Z,24.23
2018-06-28T00:15:06.445Z,24.15
2018-06-28T00:16:06.576Z,24.18
2018-06-28T00:17:06.520Z,24.21
2018-06-28T00:18:06.717Z,24.16
2018-06-28T00:19:06.588Z,24.06
2018-06-28T00:20:06.610Z,24.14
2018-06-28T00:21:06.645Z,24.09
2018-06-28T00:22:06.678Z,24.02
2018-06-28T00:23:06.707Z,24.02
2018-06-28T00:24:06.739Z,23.94
2018-06-28T00:25:07.035Z,23.92
2018-06-28T00:26:06.810Z,23.97
2018-06-28T00:27:06.835Z,23.84
2018-06-28T00:28:06.875Z,23.81
2018-06-28T00:29:06.902Z,23.77
2018-06-28T00:30:06.936Z,23.77
2018-06-28T00:31:06.965Z,23.72
2018-06-28T00:32:07.251Z,23.68
2018-06-28T00:33:07.035Z,23.67
2018-06-28T00:34:07.063Z,23.59
2018-06-28T00:35:07.099Z,23.63
2018-06-28T00:36:07.132Z,23.60
2018-06-28T00:37:07.158Z,23.62
2018-06-28T00:38:07.190Z,23.54
2018-06-28T00:39:07.525Z,23.57
2018-06-28T00:40:07.256Z,23.52
2018-06-28T00:41:07.287Z,23.47
2018-06-28T00:42:07.320Z,23.41
2018-06-28T00:43:07.370Z,23.32
2018-06-28T00:44:07.384Z,23.29
2018-06-28T00:45:07.415Z,23.38
2018-06-28T00:46:07.700Z,23.26
2018-06-28T00:47:07.484Z,23.25
2018-06-28T00:48:07.521Z,23.23
2018-06-28T00:49:07.589Z,23.21
2018-06-28T00:50:07.601Z,23.16
2018-06-28T00:51:07.607Z,23.12
2018-06-28T00:52:07.742Z,23.03
2018-06-28T00:53:07.937Z,22.97
2018-06-28T00:54:07.703Z,22.96
2018-06-28T00:55:07.770Z,22.97
2018-06-28T00:56:07.780Z,22.91
2018-06-28T00:57:07.848Z,22.86
2018-06-28T00:58:07.846Z,22.85
2018-06-28T00:59:07.864Z,22.81
2018-06-28T01:00:08.221Z,22.75
2018-06-28T01:01:07.928Z,22.70
2018-06-28T01:02:07.956Z,22.66
2018-06-28T01:03:08.044Z,22.78
2018-06-28T01:04:08.020Z,22.75
2018-06-28T01:05:08.074Z,22.66
2018-06-28T01:06:08.090Z,22.70
2018-06-28T01:07:08.444Z,22.69
2018-06-28T01:08:08.148Z,22.63
2018-06-28T01:09:08.180Z,22.67
2018-06-28T01:10:08.211Z,22.60
2018-06-28T01:11:08.269Z,22.63
2018-06-28T01:12:08.274Z,22.66
2018-06-28T01:13:08.398Z,22.63
2018-06-28T01:14:08.593Z,22.74
2018-06-28T01:15:08.381Z,22.69
2018-06-28T01:16:08.415Z,22.63
2018-06-28T01:17:08.433Z,22.60
2018-06-28T01:18:08.478Z,22.57
2018-06-28T01:19:08.555Z,22.59
2018-06-28T01:20:08.595Z,22.60
2018-06-28T01:21:08.815Z,22.60
2018-06-28T01:22:08.595Z,22.59
2018-06-28T01:23:08.633Z,22.61
2018-06-28T01:24:08.653Z,22.54
2018-06-28T01:25:08.690Z,22.45
2018-06-28T01:26:08.716Z,22.52
2018-06-28T01:27:08.747Z,22.36
2018-06-28T01:28:09.104Z,22.38
2018-06-28T01:29:08.829Z,22.45
2018-06-28T01:30:08.842Z,22.38
2018-06-28T01:31:08.896Z,22.31
2018-06-28T01:32:08.927Z,22.24
2018-06-28T01:33:09.037Z,22.27
2018-06-28T01:34:08.972Z,22.27
2018-06-28T01:35:09.297Z,22.31
2018-06-28T01:36:09.069Z,22.29
2018-06-28T01:37:09.061Z,22.30
2018-06-28T01:38:09.149Z,22.21
2018-06-28T01:39:09.149Z,22.33
2018-06-28T01:40:09.157Z,22.24
2018-06-28T01:41:09.437Z,22.30
2018-06-28T01:42:09.222Z,22.35
2018-06-28T01:43:09.253Z,22.30
2018-06-28T01:44:09.292Z,22.35
2018-06-28T01:45:09.322Z,22.26
2018-06-28T01:46:09.351Z,22.24
2018-06-28T01:47:09.679Z,22.24
2018-06-28T01:48:09.465Z,22.20
2018-06-28T01:49:09.669Z,22.23
2018-06-28T01:50:09.474Z,22.15
2018-06-28T01:51:09.506Z,22.09
2018-06-28T01:52:09.576Z,22.09
2018-06-28T01:53:09.820Z,22.11
2018-06-28T01:54:09.598Z,22.09
2018-06-28T01:55:09.623Z,22.08
2018-06-28T01:56:09.654Z,22.01
2018-06-28T01:57:09.689Z,22.06
2018-06-28T01:58:09.720Z,22.11
2018-06-28T01:59:10.007Z,22.01
2018-06-28T02:00:09.780Z,21.98
2018-06-28T02:01:09.818Z,22.05
2018-06-28T02:02:09.844Z,22.08
2018-06-28T02:03:09.873Z,22.06
2018-06-28T02:04:09.906Z,22.11
2018-06-28T02:05:10.187Z,22.08
2018-06-28T02:06:09.965Z,22.17
2018-06-28T02:07:09.997Z,22.27
2018-06-28T02:08:10.033Z,22.33
2018-06-28T02:09:10.081Z,22.33
2018-06-28T02:10:10.091Z,22.41
2018-06-28T02:11:10.394Z,22.48
2018-06-28T02:12:10.155Z,22.57
2018-06-28T02:13:10.191Z,22.60
2018-06-28T02:14:10.217Z,22.60
2018-06-28T02:15:10.248Z,22.72
2018-06-28T02:16:10.279Z,22.70
2018-06-28T02:17:10.561Z,22.78
2018-06-28T02:18:10.343Z,22.85
2018-06-28T02:19:10.377Z,22.88
2018-06-28T02:20:10.408Z,22.94
2018-06-28T02:21:10.437Z,23.01
2018-06-28T02:22:10.469Z,22.93
2018-06-28T02:23:10.804Z,23.09
2018-06-28T02:24:10.538Z,23.06
2018-06-28T02:25:10.566Z,23.09
2018-06-28T02:26:10.595Z,23.18
2018-06-28T02:27:10.628Z,23.16
2018-06-28T02:28:10.666Z,23.23
2018-06-28T02:29:11.045Z,23.29
2018-06-28T02:30:10.725Z,23.39
2018-06-28T02:31:10.761Z,23.26
2018-06-28T02:32:10.791Z,23.37
2018-06-28T02:33:10.820Z,23.44
2018-06-28T02:34:10.861Z,23.41
2018-06-28T02:35:11.169Z,23.45
2018-06-28T02:36:10.926Z,23.45
2018-06-28T02:37:10.950Z,23.59
2018-06-28T02:38:10.988Z,23.60
2018-06-28T02:39:11.012Z,23.57
2018-06-28T02:40:11.049Z,23.62
2018-06-28T02:41:11.329Z,23.68
2018-06-28T02:42:11.115Z,23.71
2018-06-28T02:43:11.157Z,23.63
2018-06-28T02:44:11.183Z,23.71
2018-06-28T02:45:11.207Z,23.69
2018-06-28T02:46:11.240Z,23.68
2018-06-28T02:47:11.603Z,23.67
2018-06-28T02:48:11.304Z,23.75
2018-06-28T02:49:11.334Z,23.74
2018-06-28T02:50:11.376Z,23.77
2018-06-28T02:51:11.398Z,23.77
2018-06-28T02:52:11.431Z,23.89
2018-06-28T02:53:11.766Z,23.77
2018-06-28T02:54:11.500Z,23.86
2018-06-28T02:55:11.528Z,23.89
2018-06-28T02:56:11.562Z,23.89
2018-06-28T02:57:11.594Z,23.86
2018-06-28T02:58:11.632Z,23.93
2018-06-28T02:59:11.659Z,23.94
2018-06-28T03:00:11.992Z,23.92
2018-06-28T03:01:11.742Z,23.86
2018-06-28T03:02:11.757Z,23.86
2018-06-28T03:03:11.788Z,23.89
2018-06-28T03:04:11.825Z,23.97
2018-06-28T03:05:11.852Z,23.97
2018-06-28T03:06:11.898Z,23.89
2018-06-28T03:07:12.167Z,23.93
2018-06-28T03:08:11.947Z,23.96
2018-06-28T03:09:11.982Z,23.96
2018-06-28T03:10:12.012Z,23.93
2018-06-28T03:11:12.045Z,23.96
2018-06-28T03:12:12.080Z,23.99
2018-06-28T03:13:12.110Z,23.93
2018-06-28T03:14:12.443Z,24.05
2018-06-28T03:15:12.175Z,24.04
2018-06-28T03:16:12.212Z,24.09
2018-06-28T03:17:12.242Z,24.04
2018-06-28T03:18:12.277Z,24.02
2018-06-28T03:19:12.331Z,24.04
2018-06-28T03:20:12.372Z,24.06
2018-06-28T03:21:12.625Z,24.09
2018-06-28T03:22:12.406Z,24.11
2018-06-28T03:23:12.434Z,24.05
2018-06-28T03:24:12.466Z,24.04
2018-06-28T03:25:12.501Z,24.12
2018-06-28T03:26:12.536Z,24.12
2018-06-28T03:27:12.564Z,24.06
2018-06-28T03:28:12.898Z,24.11
2018-06-28T03:29:12.628Z,24.15
2018-06-28T03:30:12.666Z,24.14
2018-06-28T03:31:12.694Z,24.11
2018-06-28T03:32:12.725Z,24.23
2018-06-28T03:33:12.761Z,24.08
2018-06-28T03:34:12.791Z,24.16
2018-06-28T03:35:13.075Z,24.16
2018-06-28T03:36:12.870Z,24.14
2018-06-28T03:37:12.893Z,24.19
2018-06-28T03:38:13.172Z,24.18
2018-06-28T03:39:12.956Z,24.23
2018-06-28T03:40:12.991Z,24.18
2018-06-28T03:41:13.022Z,24.18
2018-06-28T03:42:13.300Z,24.19
2018-06-28T03:43:13.082Z,24.16
2018-06-28T03:44:13.119Z,24.19
2018-06-28T03:45:13.148Z,24.14
2018-06-28T03:46:13.183Z,24.21
2018-06-28T03:47:13.214Z,24.14
2018-06-28T03:48:13.253Z,24.30
2018-06-28T03:49:13.534Z,24.23
2018-06-28T03:50:13.316Z,24.21
2018-06-28T03:51:13.343Z,24.23
2018-06-28T03:52:13.387Z,24.19
2018-06-28T03:53:13.410Z,24.24
2018-06-28T03:54:13.447Z,24.21
2018-06-28T03:55:13.496Z,24.29
2018-06-28T03:56:13.824Z,24.26
2018-06-28T03:57:13.538Z,24.23
2018-06-28T03:58:13.575Z,24.24
2018-06-28T03:59:13.607Z,24.30
2018-06-28T04:00:13.645Z,24.16
2018-06-28T04:01:13.669Z,24.29
2018-06-28T04:02:13.705Z,24.31
2018-06-28T04:03:14.036Z,24.27
2018-06-28T04:04:13.770Z,24.29
2018-06-28T04:05:13.800Z,24.27
2018-06-28T04:06:13.850Z,24.29
2018-06-28T04:07:13.955Z,24.30
2018-06-28T04:08:13.901Z,24.26
2018-06-28T04:09:13.929Z,24.27
2018-06-28T04:10:14.266Z,24.30
2018-06-28T04:11:13.999Z,24.31
2018-06-28T04:12:14.043Z,24.30
2018-06-28T04:13:14.069Z,24.30
2018-06-28T04:14:14.095Z,24.33
2018-06-28T04:15:14.125Z,24.30
2018-06-28T04:16:14.482Z,24.33
2018-06-28T04:17:14.207Z,24.36
2018-06-28T04:18:14.227Z,24.33
2018-06-28T04:19:14.260Z,24.34
2018-06-28T04:20:14.294Z,24.29
2018-06-28T04:21:14.335Z,24.34
2018-06-28T04:22:14.722Z,24.34
2018-06-28T04:23:14.386Z,24.34
2018-06-28T04:24:14.421Z,24.39
2018-06-28T04:25:14.452Z,24.31
2018-06-28T04:26:14.504Z,24.39
2018-06-28T04:27:14.535Z,24.36
2018-06-28T04:28:14.859Z,24.39
2018-06-28T04:29:14.584Z,24.44
2018-06-28T04:30:14.666Z,24.44
2018-06-28T04:31:14.702Z,24.37
2018-06-28T04:32:14.750Z,24.37
2018-06-28T04:33:14.742Z,24.34
2018-06-28T04:34:15.148Z,24.49
2018-06-28T04:35:14.800Z,24.39
2018-06-28T04:36:14.903Z,24.39
2018-06-28T04:37:14.855Z,24.44
2018-06-28T04:38:14.905Z,24.44
2018-06-28T04:39:14.932Z,24.48
2018-06-28T04:40:15.254Z,24.45
2018-06-28T04:41:14.989Z,24.39
2018-06-28T04:42:15.012Z,24.48
2018-06-28T04:43:15.059Z,24.45
2018-06-28T04:44:15.078Z,24.45
2018-06-28T04:45:15.112Z,24.46
2018-06-28T04:46:15.141Z,24.49
2018-06-28T04:47:15.178Z,24.46
2018-06-28T04:48:15.211Z,24.49
2018-06-28T04:49:15.239Z,24.48
2018-06-28T04:50:15.282Z,24.46
2018-06-28T04:51:15.306Z,24.48
2018-06-28T04:52:15.592Z,24.52
2018-06-28T04:53:15.403Z,24.48
2018-06-28T04:54:15.462Z,24.45
2018-06-28T04:55:15.463Z,24.61
2018-06-28T04:56:15.471Z,24.49
2018-06-28T04:57:15.507Z,24.60
2018-06-28T04:58:15.836Z,24.55
2018-06-28T04:59:15.567Z,24.59
2018-06-28T05:00:15.600Z,24.63
2018-06-28T05:01:15.668Z,24.63
2018-06-28T05:02:15.667Z,24.55
2018-06-28T05:03:15.734Z,24.61
2018-06-28T05:04:16.038Z,24.64
2018-06-28T05:05:15.818Z,24.63
2018-06-28T05:06:15.803Z,24.59
2018-06-28T05:07:15.982Z,24.59
2018-06-28T05:08:15.866Z,24.56
2018-06-28T05:09:15.900Z,24.60
2018-06-28T05:10:16.231Z,24.61
2018-06-28T05:11:15.994Z,24.56
2018-06-28T05:12:16.052Z,24.59
2018-06-28T05:13:16.027Z,24.60
2018-06-28T05:14:16.063Z,24.61
2018-06-28T05:15:16.209Z,24.74
2018-06-28T05:16:16.383Z,24.75
2018-06-28T05:17:16.159Z,24.80
2018-06-28T05:18:16.195Z,24.68
2018-06-28T05:19:16.229Z,24.71
2018-06-28T05:20:16.269Z,24.68
2018-06-28T05:21:16.289Z,24.75
2018-06-28T05:22:16.648Z,24.80
2018-06-28T05:23:16.395Z,24.77
2018-06-28T05:24:16.403Z,24.74
2018-06-28T05:25:16.427Z,24.80
2018-06-28T05:26:16.480Z,24.83
2018-06-28T05:27:16.510Z,24.79
2018-06-28T05:28:16.780Z,24.74
2018-06-28T05:29:16.665Z,24.79
2018-06-28T05:30:16.591Z,24.86
2018-06-28T05:31:16.622Z,24.82
2018-06-28T05:32:16.678Z,24.84
2018-06-28T05:33:16.692Z,24.84
2018-06-28T05:34:16.724Z,24.89
2018-06-28T05:35:16.757Z,24.82
2018-06-28T05:36:16.793Z,24.77
2018-06-28T05:37:16.825Z,24.89
2018-06-28T05:38:16.862Z,24.93
2018-06-28T05:39:16.884Z,24.92
2018-06-28T05:40:16.918Z,24.92
2018-06-28T05:41:17.200Z,24.89
2018-06-28T05:42:16.985Z,24.89
2018-06-28T05:43:17.016Z,24.92
2018-06-28T05:44:17.060Z,24.94
2018-06-28T05:45:17.092Z,24.94
2018-06-28T05:46:17.146Z,24.97
2018-06-28T05:47:17.145Z,24.94
2018-06-28T05:48:17.523Z,24.99
2018-06-28T05:49:17.269Z,24.98
2018-06-28T05:50:17.262Z,25.01
2018-06-28T05:51:17.290Z,24.98
2018-06-28T05:52:17.325Z,25.01
2018-06-28T05:53:17.374Z,24.99
2018-06-28T05:54:17.381Z,24.99
2018-06-28T05:55:17.670Z,25.04
2018-06-28T05:56:17.452Z,25.07
2018-06-28T05:57:17.480Z,24.99
2018-06-28T05:58:17.518Z,25.04
2018-06-28T05:59:17.579Z,25.05
2018-06-28T06:00:17.580Z,25.04
2018-06-28T06:01:17.665Z,24.98
2018-06-28T06:02:17.949Z,25.04
2018-06-28T06:03:17.681Z,25.07
2018-06-28T06:04:17.730Z,25.04
2018-06-28T06:05:17.761Z,24.99
2018-06-28T06:06:17.779Z,25.01
2018-06-28T06:07:17.832Z,25.04
2018-06-28T06:08:17.847Z,25.04
2018-06-28T06:09:18.129Z,25.04
2018-06-28T06:10:17.975Z,25.02
2018-06-28T06:11:17.949Z,24.99
2018-06-28T06:12:17.982Z,25.07
2018-06-28T06:13:18.021Z,25.04
2018-06-28T06:14:18.051Z,25.07
2018-06-28T06:15:18.110Z,25.12
2018-06-28T06:16:18.412Z,25.12
2018-06-28T06:17:18.152Z,25.09
2018-06-28T06:18:18.177Z,25.12
2018-06-28T06:19:18.209Z,25.17
2018-06-28T06:20:18.286Z,25.14
2018-06-28T06:21:18.276Z,25.12
2018-06-28T06:22:18.409Z,25.11
2018-06-28T06:23:18.595Z,25.14
2018-06-28T06:24:18.375Z,25.14
2018-06-28T06:25:18.412Z,25.12
2018-06-28T06:26:18.444Z,25.17
2018-06-28T06:27:18.493Z,25.12
2018-06-28T06:28:18.510Z,25.19
2018-06-28T06:29:18.572Z,25.14
2018-06-28T06:30:18.824Z,25.17
2018-06-28T06:31:18.722Z,25.20
2018-06-28T06:32:18.641Z,25.20
2018-06-28T06:33:18.682Z,25.19
2018-06-28T06:34:18.737Z,25.16
2018-06-28T06:35:18.741Z,25.22
2018-06-28T06:36:18.819Z,25.22
2018-06-28T06:37:19.121Z,25.17
2018-06-28T06:38:19.142Z,25.19
2018-06-28T06:39:18.872Z,25.20
2018-06-28T06:40:18.920Z,25.23
2018-06-28T06:41:18.940Z,25.24
2018-06-28T06:42:18.979Z,25.20
2018-06-28T06:43:19.006Z,25.19
2018-06-28T06:44:19.366Z,25.22
2018-06-28T06:45:19.077Z,25.26
2018-06-28T06:46:19.143Z,25.20
2018-06-28T06:47:19.148Z,25.19
2018-06-28T06:48:19.179Z,25.22
2018-06-28T06:49:19.211Z,25.23
2018-06-28T06:50:19.241Z,25.26
2018-06-28T06:51:19.533Z,25.23
2018-06-28T06:52:19.313Z,25.35
2018-06-28T06:53:19.341Z,25.35
2018-06-28T06:54:19.381Z,25.34
2018-06-28T06:55:19.416Z,25.34
2018-06-28T06:56:19.445Z,25.30
2018-06-28T06:57:19.734Z,25.38
2018-06-28T06:58:19.520Z,25.34
2018-06-28T06:59:19.544Z,25.42
2018-06-28T07:00:19.579Z,25.39
2018-06-28T07:01:19.620Z,25.35
2018-06-28T07:02:19.645Z,25.44
2018-06-28T07:03:19.950Z,25.42
2018-06-28T07:04:19.783Z,25.44
2018-06-28T07:05:19.758Z,25.42
2018-06-28T07:06:19.783Z,25.38
2018-06-28T07:07:19.828Z,25.36
2018-06-28T07:08:19.871Z,25.41
2018-06-28T07:09:20.183Z,25.38
2018-06-28T07:10:19.992Z,25.42
2018-06-28T07:11:20.055Z,25.34
2018-06-28T07:12:19.977Z,25.42
2018-06-28T07:13:20.015Z,25.44
2018-06-28T07:14:20.053Z,25.46
2018-06-28T07:15:20.330Z,25.44
2018-06-28T07:16:20.140Z,25.46
2018-06-28T07:17:20.146Z,25.42
2018-06-28T07:18:20.180Z,25.54
2018-06-28T07:19:20.214Z,25.45
2018-06-28T07:20:20.254Z,25.48
2018-06-28T07:21:20.532Z,25.45
2018-06-28T07:22:20.311Z,25.49
2018-06-28T07:23:20.464Z,25.49
2018-06-28T07:24:20.389Z,25.49
2018-06-28T07:25:20.414Z,25.51
2018-06-28T07:26:20.447Z,25.54
2018-06-28T07:27:20.781Z,25.60
2018-06-28T07:28:20.581Z,25.59
2018-06-28T07:29:20.553Z,25.56
2018-06-28T07:30:20.582Z,25.54
2018-06-28T07:31:20.626Z,25.57
2018-06-28T07:32:20.654Z,25.61
2018-06-28T07:33:21.098Z,25.57
2018-06-28T07:34:20.720Z,25.64
2018-06-28T07:35:20.749Z,25.53
2018-06-28T07:36:20.867Z,25.66
2018-06-28T07:37:20.818Z,25.64
2018-06-28T07:38:20.910Z,25.64
2018-06-28T07:39:21.155Z,25.69
2018-06-28T07:40:20.934Z,25.66
2018-06-28T07:41:20.953Z,25.69
2018-06-28T07:42:21.051Z,25.64
2018-06-28T07:43:21.047Z,25.59
2018-06-28T07:44:21.058Z,25.61
2018-06-28T07:45:21.347Z,25.66
2018-06-28T07:46:21.131Z,25.64
2018-06-28T07:47:21.161Z,25.72
2018-06-28T07:48:21.245Z,25.66
2018-06-28T07:49:21.227Z,25.69
2018-06-28T07:50:21.261Z,25.66
2018-06-28T07:51:21.554Z,25.72
2018-06-28T07:52:21.328Z,25.69
2018-06-28T07:53:21.365Z,25.72
2018-06-28T07:54:21.392Z,25.69
2018-06-28T07:55:21.445Z,25.64
2018-06-28T07:56:21.460Z,25.66
2018-06-28T07:57:21.816Z,25.76
2018-06-28T07:58:21.627Z,25.66
2018-06-28T07:59:21.566Z,25.71
2018-06-28T08:00:21.599Z,25.63
2018-06-28T08:01:21.634Z,25.61
2018-06-28T08:02:21.665Z,25.66
2018-06-28T08:03:22.006Z,25.76
2018-06-28T08:04:21.739Z,25.64
2018-06-28T08:05:21.763Z,25.66
2018-06-28T08:06:21.813Z,25.74
2018-06-28T08:07:21.833Z,25.78
2018-06-28T08:08:21.866Z,25.67
2018-06-28T08:09:22.199Z,25.74
2018-06-28T08:10:21.935Z,25.76
2018-06-28T08:11:21.965Z,25.79
2018-06-28T08:12:22.004Z,25.76
2018-06-28T08:13:22.034Z,25.74
2018-06-28T08:14:22.094Z,25.79
2018-06-28T08:15:22.105Z,25.71
2018-06-28T08:16:22.437Z,25.75
2018-06-28T08:17:22.172Z,25.71
2018-06-28T08:18:22.204Z,25.76
2018-06-28T08:19:22.239Z,25.81
2018-06-28T08:20:22.271Z,25.81
2018-06-28T08:21:22.343Z,25.76
2018-06-28T08:22:22.340Z,25.78
2018-06-28T08:23:22.630Z,25.74
2018-06-28T08:24:22.456Z,25.72
2018-06-28T08:25:22.443Z,25.86
2018-06-28T08:26:22.480Z,25.79
2018-06-28T08:27:22.514Z,25.79
2018-06-28T08:28:22.633Z,25.83
2018-06-28T08:29:22.578Z,25.83
2018-06-28T08:30:22.970Z,25.81
2018-06-28T08:31:22.650Z,25.82
2018-06-28T08:32:22.678Z,25.82
2018-06-28T08:33:22.713Z,25.86
2018-06-28T08:34:22.748Z,25.79
2018-06-28T08:35:22.779Z,25.85
2018-06-28T08:36:22.829Z,25.93
2018-06-28T08:37:23.165Z,25.85
2018-06-28T08:38:22.883Z,25.82
2018-06-28T08:39:22.924Z,25.91
2018-06-28T08:40:22.957Z,25.89
2018-06-28T08:41:22.992Z,25.94
2018-06-28T08:42:23.022Z,25.86
2018-06-28T08:43:23.060Z,25.82
2018-06-28T08:44:23.388Z,25.91
2018-06-28T08:45:23.120Z,25.93
2018-06-28T08:46:23.155Z,25.97
2018-06-28T08:47:23.213Z,25.96
2018-06-28T08:48:23.222Z,25.96
2018-06-28T08:49:23.257Z,25.93
2018-06-28T08:50:23.294Z,26.00
2018-06-28T08:51:23.575Z,25.96
2018-06-28T08:52:23.361Z,25.96
2018-06-28T08:53:23.397Z,25.93
2018-06-28T08:54:23.426Z,25.93
2018-06-28T08:55:23.462Z,25.97
2018-06-28T08:56:23.509Z,25.98
2018-06-28T08:57:23.529Z,25.91
2018-06-28T08:58:23.566Z,25.96
2018-06-28T08:59:23.614Z,25.93
2018-06-28T09:00:23.631Z,25.97
2018-06-28T09:01:23.675Z,25.97
2018-06-28T09:02:23.699Z,25.91
2018-06-28T09:03:23.784Z,25.96
2018-06-28T09:04:24.076Z,25.93
2018-06-28T09:05:23.801Z,25.97
2018-06-28T09:06:23.844Z,25.93
2018-06-28T09:07:23.883Z,26.00
2018-06-28T09:08:23.906Z,26.01
2018-06-28T09:09:23.936Z,26.04
2018-06-28T09:10:23.972Z,26.03
2018-06-28T09:11:24.321Z,26.01
2018-06-28T09:12:24.047Z,26.03
2018-06-28T09:13:24.082Z,26.00
2018-06-28T09:14:24.119Z,25.98
2018-06-28T09:15:24.172Z,26.01
2018-06-28T09:16:24.247Z,26.04
2018-06-28T09:17:24.211Z,26.08
2018-06-28T09:18:24.559Z,26.04
2018-06-28T09:19:24.283Z,26.01
2018-06-28T09:20:24.313Z,26.00
2018-06-28T09:21:24.397Z,26.03
2018-06-28T09:22:24.385Z,26.03
2018-06-28T09:23:24.456Z,26.00
2018-06-28T09:24:24.453Z,26.01
2018-06-28T09:25:24.736Z,26.08
2018-06-28T09:26:24.675Z,26.06
2018-06-28T09:27:24.550Z,25.98
2018-06-28T09:28:24.590Z,26.01
2018-06-28T09:29:24.643Z,26.13
2018-06-28T09:30:24.653Z,26.01
2018-06-28T09:31:24.692Z,26.13
2018-06-28T09:32:24.979Z,26.12
2018-06-28T09:33:24.808Z,26.17
2018-06-28T09:34:24.790Z,26.13
2018-06-28T09:35:24.827Z,26.11
2018-06-28T09:36:24.901Z,26.12
2018-06-28T09:37:24.894Z,26.12
2018-06-28T09:38:25.302Z,26.09
2018-06-28T09:39:24.964Z,26.20
2018-06-28T09:40:24.995Z,26.19
2018-06-28T09:41:25.029Z,26.11
2018-06-28T09:42:25.074Z,26.12
2018-06-28T09:43:25.100Z,26.11
2018-06-28T09:44:25.444Z,26.23
2018-06-28T09:45:25.169Z,26.20
2018-06-28T09:46:25.206Z,26.21
2018-06-28T09:47:25.234Z,26.13
2018-06-28T09:48:25.274Z,26.20
2018-06-28T09:49:25.304Z,26.21
2018-06-28T09:50:25.637Z,26.19
2018-06-28T09:51:25.382Z,26.28
2018-06-28T09:52:25.406Z,26.09
2018-06-28T09:53:25.461Z,26.19
2018-06-28T09:54:25.512Z,26.17
2018-06-28T09:55:25.510Z,26.20
2018-06-28T09:56:25.798Z,26.20
2018-06-28T09:57:25.580Z,26.21
2018-06-28T09:58:25.669Z,26.20
2018-06-28T09:59:25.659Z,26.20
2018-06-28T10:00:25.740Z,26.17
2018-06-28T10:01:25.717Z,26.27
2018-06-28T10:02:26.053Z,26.17
2018-06-28T10:03:25.793Z,26.19
2018-06-28T10:04:25.846Z,26.28
2018-06-28T10:05:25.872Z,26.21
2018-06-28T10:06:25.901Z,26.23
2018-06-28T10:07:25.925Z,26.29
2018-06-28T10:08:26.307Z,26.24
2018-06-28T10:09:25.990Z,26.24
2018-06-28T10:10:26.043Z,26.28
2018-06-28T10:11:26.063Z,26.27
2018-06-28T10:12:26.095Z,26.23
2018-06-28T10:13:26.125Z,26.29
2018-06-28T10:14:26.466Z,26.27
2018-06-28T10:15:26.196Z,26.27
2018-06-28T10:16:26.231Z,26.20
2018-06-28T10:17:26.311Z,26.27
2018-06-28T10:18:26.299Z,26.19
2018-06-28T10:19:26.348Z,26.23
2018-06-28T10:20:26.668Z,26.21
2018-06-28T10:21:26.407Z,26.34
2018-06-28T10:22:26.438Z,26.28
2018-06-28T10:23:26.473Z,26.21
2018-06-28T10:24:26.508Z,26.27
2018-06-28T10:25:26.544Z,26.21
2018-06-28T10:26:26.877Z,26.31
2018-06-28T10:27:26.609Z,26.27
2018-06-28T10:28:26.641Z,26.21
2018-06-28T10:29:26.676Z,26.35
2018-06-28T10:30:26.709Z,26.32
2018-06-28T10:31:26.760Z,26.29
2018-06-28T10:32:27.039Z,26.28
2018-06-28T10:33:26.815Z,26.31
2018-06-28T10:34:26.859Z,26.27
2018-06-28T10:35:26.884Z,26.29
2018-06-28T10:36:26.917Z,26.31
2018-06-28T10:38:27.249Z,26.28
2018-06-28T10:39:27.016Z,26.32
2018-06-28T10:40:27.054Z,26.36
2018-06-28T10:41:27.086Z,26.29
2018-06-28T10:42:27.120Z,26.23
2018-06-28T10:43:27.155Z,26.27
2018-06-28T10:44:27.490Z,26.31
2018-06-28T10:45:27.236Z,26.29
2018-06-28T10:46:27.260Z,26.34
2018-06-28T10:47:27.348Z,26.34
2018-06-28T10:48:27.330Z,26.28
2018-06-28T10:49:27.370Z,26.29
2018-06-28T10:50:27.699Z,26.32
2018-06-28T10:51:27.433Z,26.34
2018-06-28T10:52:27.472Z,26.34
2018-06-28T10:53:27.498Z,26.29
2018-06-28T10:54:27.534Z,26.36
2018-06-28T10:55:27.570Z,26.39
2018-06-28T10:56:27.686Z,26.28
2018-06-28T10:57:27.935Z,26.35
2018-06-28T10:58:27.675Z,26.32
2018-06-28T10:59:27.771Z,26.32
2018-06-28T11:00:27.740Z,26.39
2018-06-28T11:01:27.773Z,26.35
2018-06-28T11:02:27.825Z,26.36
2018-06-28T11:03:27.848Z,26.42
2018-06-28T11:04:28.244Z,26.35
2018-06-28T11:05:27.911Z,26.36
2018-06-28T11:06:27.955Z,26.34
2018-06-28T11:07:28.025Z,26.35
2018-06-28T11:08:28.116Z,26.34
2018-06-28T11:09:28.051Z,26.46
2018-06-28T11:10:28.088Z,26.36
2018-06-28T11:11:28.440Z,26.39
2018-06-28T11:12:28.155Z,26.44
2018-06-28T11:13:28.196Z,26.29
2018-06-28T11:14:28.255Z,26.41
2018-06-28T11:15:28.259Z,26.46
2018-06-28T11:16:28.292Z,26.47
2018-06-28T11:17:28.329Z,26.49
2018-06-28T11:18:28.673Z,26.46
2018-06-28T11:19:28.395Z,26.47
2018-06-28T11:20:28.684Z,26.44
2018-06-28T11:21:28.466Z,26.47
2018-06-28T11:22:28.498Z,26.49
2018-06-28T11:23:28.539Z,26.47
2018-06-28T11:24:28.570Z,26.46
2018-06-28T11:25:28.851Z,26.42
2018-06-28T11:26:28.639Z,26.46
2018-06-28T11:27:28.781Z,26.46
2018-06-28T11:28:28.728Z,26.50
2018-06-28T11:29:28.793Z,26.47
2018-06-28T11:30:28.816Z,26.46
2018-06-28T11:31:28.812Z,26.49
2018-06-28T11:32:29.122Z,26.47
2018-06-28T11:33:28.879Z,26.53
2018-06-28T11:34:28.912Z,26.47
2018-06-28T11:35:28.972Z,26.59
2018-06-28T11:36:28.995Z,26.50
2018-06-28T11:37:29.038Z,26.61
2018-06-28T11:38:29.051Z,26.60
2018-06-28T11:39:29.399Z,26.53
2018-06-28T11:40:29.125Z,26.53
2018-06-28T11:41:29.157Z,26.42
2018-06-28T11:42:29.237Z,26.57
2018-06-28T11:43:29.224Z,26.53
2018-06-28T11:44:29.265Z,26.56
2018-06-28T11:45:29.300Z,26.56
2018-06-28T11:46:29.632Z,26.59
2018-06-28T11:47:29.616Z,26.56
2018-06-28T11:48:29.404Z,26.49
2018-06-28T11:49:29.435Z,26.51
2018-06-28T11:50:29.470Z,26.49
2018-06-28T11:51:29.507Z,26.51
2018-06-28T11:52:29.660Z,26.56
2018-06-28T11:53:29.903Z,26.60
2018-06-28T11:54:29.612Z,26.49
2018-06-28T11:55:29.642Z,26.54
2018-06-28T11:56:29.678Z,26.59
2018-06-28T11:57:29.711Z,26.60
2018-06-28T11:58:29.795Z,26.53
2018-06-28T11:59:29.836Z,26.60
2018-06-28T12:00:30.069Z,26.60
2018-06-28T12:01:29.859Z,26.49
2018-06-28T12:02:29.888Z,26.57
2018-06-28T12:03:29.925Z,26.57
2018-06-28T12:04:29.973Z,26.60
2018-06-28T12:05:30.041Z,26.61
2018-06-28T12:06:30.024Z,26.53
2018-06-28T12:07:30.365Z,26.53
2018-06-28T12:08:30.138Z,26.60
2018-06-28T12:09:30.246Z,26.61
2018-06-28T12:10:30.179Z,26.61
2018-06-28T12:11:30.194Z,26.65
2018-06-28T12:12:30.229Z,26.65
2018-06-28T12:13:30.270Z,26.61
2018-06-28T12:14:30.651Z,26.65
2018-06-28T12:15:30.411Z,26.64
2018-06-28T12:16:30.390Z,26.64
2018-06-28T12:17:30.404Z,26.64
2018-06-28T12:18:30.440Z,26.65
2018-06-28T12:19:30.472Z,26.72
2018-06-28T12:20:30.808Z,26.61
2018-06-28T12:21:30.541Z,26.68
2018-06-28T12:22:30.611Z,26.65
2018-06-28T12:23:30.642Z,26.68
2018-06-28T12:24:30.651Z,26.61
2018-06-28T12:25:30.690Z,26.65
2018-06-28T12:26:30.985Z,26.64
2018-06-28T12:27:30.751Z,26.66
2018-06-28T12:28:30.793Z,26.69
2018-06-28T12:29:30.819Z,26.69
2018-06-28T12:30:30.855Z,26.60
2018-06-28T12:31:30.897Z,26.73
2018-06-28T12:32:31.212Z,26.73
2018-06-28T12:33:30.964Z,26.66
2018-06-28T12:34:30.994Z,26.72
2018-06-28T12:35:31.089Z,26.73
2018-06-28T12:36:31.068Z,26.68
2018-06-28T12:37:31.096Z,26.73
2018-06-28T12:38:31.435Z,26.69
2018-06-28T12:39:31.169Z,26.69
2018-06-28T12:40:31.219Z,26.69
2018-06-28T12:41:31.243Z,26.68
2018-06-28T12:42:31.280Z,26.73
2018-06-28T12:43:31.309Z,26.69
2018-06-28T12:44:31.655Z,26.72
2018-06-28T12:45:31.383Z,26.73
2018-06-28T12:46:31.442Z,26.75
2018-06-28T12:47:31.446Z,26.79
2018-06-28T12:48:31.484Z,26.71
2018-06-28T12:49:31.515Z,26.81
2018-06-28T12:50:31.853Z,26.79
2018-06-28T12:51:31.586Z,26.73
2018-06-28T12:52:31.635Z,26.73
2018-06-28T12:53:31.658Z,26.84